Time;durP1;ratioP1;P1;durP2;ratioP2;P2;SDS_P1;SDS_P2;PMS_P1;PMS_P2;Temp;Humidity;BMP_temperature;BMP_pressure;BME280_temperature;BME280_humidity;BME280_pressure;Samples;Min_cycle;Max_cycle;Signal;HPM_P1;HPM_P2
2022/12/22 03:25:55;;;;;;;;;;;;;;;0.01;0.00;59042.03;5022222;28;20036;-54
2022/12/22 03:28:24;;;;;;;69.10;14.10;;;;;;;0.01;0.00;59042.03;5021208;28;19975;-54
2022/12/22 03:31:00;;;;;;;53.22;13.05;;;;;;;0.01;0.00;59042.03;5020719;28;20021;-57
2022/12/22 03:33:26;;;;;;;72.40;14.65;;;;;;;0.01;0.00;59042.03;5020954;28;20185;-55
2022/12/22 03:35:51;;;;;;;49.78;12.27;;;;;;;0.01;0.00;59042.03;5021084;28;20148;-55
2022/12/22 03:38:16;;;;;;;57.58;12.43;;;;;;;0.01;0.00;59042.03;5022304;28;20108;-54
2022/12/22 03:40:42;;;;;;;75.30;14.85;;;;;;;0.01;0.00;59042.03;5020564;28;20033;-55
2022/12/22 03:48:39;;;;;;;68.80;15.25;;;;;;;0.01;0.00;59042.03;5021255;28;20402;-54
2022/12/22 03:51:05;;;;;;;67.82;14.15;;;;;;;0.01;0.00;59042.03;5020876;28;20518;-55
2022/12/22 03:53:30;;;;;;;68.53;13.85;;;;;;;0.01;0.00;59042.03;5021290;28;20045;-56
2022/12/22 03:55:55;;;;;;;61.28;12.98;;;;;;;0.01;0.00;59042.03;5020574;28;20124;-54
2022/12/22 03:58:21;;;;;;;57.33;12.05;;;;;;;0.01;0.00;59042.03;5020941;28;20109;-56
2022/12/22 04:00:46;;;;;;;75.68;15.13;;;;;;;0.01;0.00;59042.03;5019838;28;20108;-54
2022/12/22 04:03:12;;;;;;;58.67;14.18;;;;;;;0.01;0.00;59042.03;5020909;28;20029;-54
2022/12/22 04:05:38;;;;;;;56.38;11.23;;;;;;;0.01;0.00;59042.03;5020044;28;20033;-54
2022/12/22 04:08:04;;;;;;;61.60;13.65;;;;;;;0.01;0.00;59042.03;5020721;28;20021;-55
2022/12/22 04:13:13;;;;;;;58.67;12.52;;;;;;;0.01;0.00;59042.03;5019348;28;20056;-53
2022/12/22 04:15:38;;;;;;;43.97;9.50;;;;;;;0.01;0.00;59042.03;5020112;28;20033;-56
2022/12/22 04:18:04;;;;;;;53.15;10.68;;;;;;;0.01;0.00;59042.03;5020947;28;20112;-54
2022/12/22 04:20:29;;;;;;;51.92;12.55;;;;;;;0.01;0.00;59042.03;5019483;28;20037;-54
2022/12/22 04:22:55;;;;;;;84.00;14.30;;;;;;;0.01;0.00;59042.03;5020449;28;20037;-54
2022/12/22 04:25:21;;;;;;;57.38;11.95;;;;;;;0.01;0.00;59042.03;5020195;28;20536;-56
2022/12/22 04:27:47;;;;;;;55.38;11.32;;;;;;;0.01;0.00;59042.03;5020691;28;20049;-55
2022/12/22 04:30:12;;;;;;;68.85;13.25;;;;;;;0.01;0.00;59042.03;5019158;28;20477;-54
2022/12/22 04:32:38;;;;;;;48.42;9.52;;;;;;;0.01;0.00;59042.03;5020648;28;20075;-54
2022/12/22 04:35:05;;;;;;;85.20;15.68;;;;;;;0.01;0.00;59042.03;5019718;28;20103;-54
2022/12/22 04:37:30;;;;;;;57.97;11.82;;;;;;;0.01;0.00;59042.03;5020000;28;20739;-53
2022/12/22 04:39:55;;;;;;;72.05;12.68;;;;;;;0.01;0.00;59042.03;5019768;28;20033;-54
2022/12/22 04:42:21;;;;;;;63.70;12.73;;;;;;;0.01;0.00;59042.03;5019518;28;20103;-55
2022/12/22 04:44:46;;;;;;;77.70;14.43;;;;;;;0.01;0.00;59042.03;5019946;28;20062;-54
2022/12/22 04:47:11;;;;;;;63.05;13.02;;;;;;;0.01;0.00;59042.03;5019486;28;20818;-53
2022/12/22 04:49:37;;;;;;;45.20;8.82;;;;;;;0.01;0.00;59042.03;5020136;28;20028;-54
2022/12/22 04:52:02;;;;;;;54.65;12.82;;;;;;;0.01;0.00;59042.03;5019572;28;20041;-54
2022/12/22 04:54:28;;;;;;;65.93;12.93;;;;;;;0.01;0.00;59042.03;5019558;28;20037;-55
2022/12/22 04:56:53;;;;;;;60.40;11.07;;;;;;;0.01;0.00;59042.03;5019309;28;20034;-55
2022/12/22 04:59:18;;;;;;;69.65;12.77;;;;;;;0.01;0.00;59042.03;5019508;28;20032;-54
2022/12/22 05:01:44;;;;;;;53.15;9.15;;;;;;;0.01;0.00;59042.03;5018587;28;20587;-54
2022/12/22 05:04:09;;;;;;;46.88;9.35;;;;;;;0.01;0.00;59042.03;5019656;28;20162;-54
2022/12/22 05:06:35;;;;;;;72.70;14.50;;;;;;;0.01;0.00;59042.03;5018749;28;20041;-54
2022/12/22 05:09:00;;;;;;;47.13;9.70;;;;;;;0.01;0.00;59042.03;5020081;28;20569;-53
2022/12/22 05:11:26;;;;;;;61.08;13.10;;;;;;;0.01;0.00;59042.03;5017706;28;20044;-55
2022/12/22 05:13:51;;;;;;;46.00;9.02;;;;;;;0.01;0.00;59042.03;5019545;28;20029;-54
2022/12/22 05:16:17;;;;;;;54.30;10.00;;;;;;;0.01;0.00;59042.03;5019437;28;20045;-54
2022/12/22 05:18:44;;;;;;;55.05;9.30;;;;;;;0.01;0.00;59042.03;5019767;28;20026;-54
2022/12/22 05:21:18;;;;;;;58.13;12.82;;;;;;;0.01;0.00;59042.03;5018580;28;20722;-55
2022/12/22 05:23:44;;;;;;;60.35;12.65;;;;;;;0.01;0.00;59042.03;5018269;28;20117;-54
2022/12/22 05:26:13;;;;;;;61.67;12.88;;;;;;;0.01;0.00;59042.03;5019025;28;20490;-56
2022/12/22 05:28:39;;;;;;;58.95;12.60;;;;;;;0.01;0.00;59042.03;5019133;28;20087;-56
2022/12/22 05:31:07;;;;;;;56.67;11.20;;;;;;;0.01;0.00;59042.03;5000528;28;20046;-55
2022/12/22 05:33:33;;;;;;;48.67;10.32;;;;;;;0.01;0.00;59042.03;5018878;28;20055;-54
2022/12/22 05:35:58;;;;;;;65.05;12.88;;;;;;;0.01;0.00;59042.03;5018650;28;20612;-54
2022/12/22 05:38:23;;;;;;;57.67;11.75;;;;;;;0.01;0.00;59042.03;5018836;28;20037;-54
2022/12/22 05:40:49;;;;;;;58.83;12.05;;;;;;;0.01;0.00;59042.03;5018047;28;20041;-56
2022/12/22 05:43:15;;;;;;;63.40;12.48;;;;;;;0.01;0.00;59042.03;5018659;28;20827;-54
2022/12/22 05:45:42;;;;;;;56.83;11.45;;;;;;;0.01;0.00;59042.03;5018477;28;20033;-55
2022/12/22 05:48:08;;;;;;;57.38;11.63;;;;;;;0.01;0.00;59042.03;5018545;28;20044;-54
2022/12/22 05:50:33;;;;;;;47.00;8.93;;;;;;;0.01;0.00;59042.03;5018343;28;20041;-54
2022/12/22 05:52:59;;;;;;;49.50;10.73;;;;;;;0.01;0.00;59042.03;5018892;28;20036;-54
2022/12/22 05:55:24;;;;;;;53.90;11.40;;;;;;;0.01;0.00;59042.03;5018422;28;20568;-56
2022/12/22 05:57:49;;;;;;;57.85;10.75;;;;;;;0.01;0.00;59042.03;5018891;28;20036;-56
2022/12/22 06:00:16;;;;;;;62.03;11.98;;;;;;;0.01;0.00;59042.03;5017853;28;20029;-54
2022/12/22 06:02:42;;;;;;;31.88;6.20;;;;;;;0.01;0.00;59042.03;5018933;28;20026;-57
2022/12/22 06:05:09;;;;;;;39.88;7.22;;;;;;;0.01;0.00;59042.03;5017933;28;20033;-54
2022/12/22 06:07:34;;;;;;;48.13;10.27;;;;;;;0.01;0.00;59042.03;5018631;28;20033;-54
2022/12/22 06:10:00;;;;;;;50.70;10.02;;;;;;;0.01;0.00;59042.03;5018168;28;20361;-57
2022/12/22 06:12:27;;;;;;;55.63;10.43;;;;;;;0.01;0.00;59042.03;5017500;28;20942;-54
2022/12/22 06:14:52;;;;;;;68.25;13.63;;;;;;;0.01;0.00;59042.03;5018650;28;20021;-54
2022/12/22 06:17:17;;;;;;;49.20;9.80;;;;;;;0.01;0.00;59042.03;5017711;28;20072;-54
2022/12/22 06:19:43;;;;;;;57.47;10.52;;;;;;;0.01;0.00;59042.03;5018271;28;20990;-54
2022/12/22 06:22:08;;;;;;;55.25;11.73;;;;;;;0.01;0.00;59042.03;5018355;28;20048;-54
2022/12/22 06:24:33;;;;;;;51.85;8.93;;;;;;;0.01;0.00;59042.03;5014278;28;20025;-54
2022/12/22 06:27:00;;;;;;;70.93;14.43;;;;;;;0.01;0.00;59042.03;5015621;28;20072;-55
2022/12/22 06:29:25;;;;;;;58.08;11.02;;;;;;;0.01;0.00;59042.03;5017473;28;20029;-56
2022/12/22 06:31:50;;;;;;;47.25;10.43;;;;;;;0.01;0.00;59042.03;5016661;28;20171;-54
2022/12/22 06:34:16;;;;;;;52.47;10.38;;;;;;;0.01;0.00;59042.03;5017426;28;20029;-54
2022/12/22 06:36:43;;;;;;;44.83;6.63;;;;;;;0.01;0.00;59042.03;5016522;28;20680;-55
2022/12/22 06:39:08;;;;;;;62.00;13.60;;;;;;;0.01;0.00;59042.03;5017881;28;20111;-55
2022/12/22 06:44:18;;;;;;;64.65;12.57;;;;;;;0.01;0.00;59042.03;5018429;28;20032;-54
2022/12/22 06:46:43;;;;;;;58.53;11.15;;;;;;;0.01;0.00;59042.03;5017269;28;20125;-54
2022/12/22 06:49:08;;;;;;;46.28;7.57;;;;;;;0.01;0.00;59042.03;5018140;28;20053;-54
2022/12/22 06:51:33;;;;;;;43.63;8.65;;;;;;;0.01;0.00;59042.03;5017175;28;20041;-54
2022/12/22 06:53:59;;;;;;;71.80;14.32;;;;;;;0.01;0.00;59042.03;5017236;28;20288;-54
2022/12/22 06:56:24;;;;;;;51.83;9.50;;;;;;;0.01;0.00;59042.03;5018061;28;20478;-55
2022/12/22 06:58:49;;;;;;;52.60;11.02;;;;;;;0.01;0.00;59042.03;5017590;28;20040;-54
2022/12/22 07:01:15;;;;;;;52.65;10.02;;;;;;;0.01;0.00;59042.03;5016904;28;20036;-53
2022/12/22 07:03:40;;;;;;;49.10;11.30;;;;;;;0.01;0.00;59042.03;5018294;28;20017;-55
2022/12/22 07:06:06;;;;;;;58.65;11.43;;;;;;;0.01;0.00;59042.03;5016577;28;20124;-54
2022/12/22 07:08:31;;;;;;;57.05;11.63;;;;;;;0.01;0.00;59042.03;5017634;28;20140;-54
2022/12/22 07:10:57;;;;;;;37.58;5.55;;;;;;;0.01;0.00;59042.03;5016955;28;20041;-55
2022/12/22 07:13:24;;;;;;;53.83;10.30;;;;;;;0.01;0.00;59042.03;5017975;28;20434;-54
2022/12/22 07:15:50;;;;;;;38.53;7.13;;;;;;;0.01;0.00;59042.03;5017141;28;20033;-54
2022/12/22 07:18:16;;;;;;;64.38;12.07;;;;;;;0.01;0.00;59042.03;5017427;28;20104;-54
2022/12/22 07:20:41;;;;;;;57.08;11.45;;;;;;;0.01;0.00;59042.03;5015390;28;20088;-54
2022/12/22 07:23:07;;;;;;;48.30;7.95;;;;;;;0.01;0.00;59042.03;5017830;28;20040;-56
2022/12/22 07:25:32;;;;;;;57.53;11.93;;;;;;;0.01;0.00;59042.03;5017412;28;20108;-56
2022/12/22 07:27:58;;;;;;;39.10;8.23;;;;;;;0.01;0.00;59042.03;5017797;28;20018;-54
2022/12/22 07:30:23;;;;;;;47.97;7.03;;;;;;;0.01;0.00;59042.03;5016587;28;20406;-60
2022/12/22 07:32:48;;;;;;;59.13;10.95;;;;;;;0.01;0.00;59042.03;5017789;28;20032;-55
2022/12/22 07:35:14;;;;;;;49.13;8.07;;;;;;;0.01;0.00;59042.03;5016824;28;20060;-59
2022/12/22 07:37:39;;;;;;;46.17;8.77;;;;;;;0.01;0.00;59042.03;5016335;28;20086;-54
2022/12/22 07:40:05;;;;;;;38.80;7.47;;;;;;;0.01;0.00;59042.03;5017043;28;20382;-55
2022/12/22 07:42:45;;;;;;;58.00;10.82;;;;;;;0.01;0.00;59042.03;5016864;28;20061;-54
2022/12/22 07:45:15;;;;;;;47.80;10.02;;;;;;;0.01;0.00;59042.03;5017525;28;20104;-54
2022/12/22 07:47:41;;;;;;;52.47;10.30;;;;;;;0.01;0.00;59042.03;5020775;28;20650;-53
2022/12/22 07:50:27;;;;;;;55.17;11.60;;;;;;;0.01;0.00;59042.03;5020545;28;20786;-53
2022/12/22 07:53:03;;;;;;;61.53;10.48;;;;;;;0.01;0.00;59042.03;5021509;28;20042;-53
2022/12/22 07:55:34;;;;;;;65.30;13.43;;;;;;;0.01;0.00;59042.03;5020334;28;20041;-55
2022/12/22 07:57:59;;;;;;;62.42;12.38;;;;;;;0.01;0.00;59042.03;5021521;28;20032;-54
2022/12/22 08:00:25;;;;;;;56.53;10.82;;;;;;;0.01;0.00;59042.03;5020280;28;20033;-55
2022/12/22 08:02:55;;;;;;;47.40;9.07;;;;;;;0.01;0.00;59042.03;5020821;28;20025;-54
2022/12/22 08:05:22;;;;;;;46.42;10.18;;;;;;;0.01;0.00;59042.03;5020062;28;20905;-53
2022/12/22 08:07:48;;;;;;;49.40;7.20;;;;;;;0.01;0.00;59042.03;5007045;28;20687;-55
2022/12/22 08:10:14;;;;;;;40.75;8.75;;;;;;;0.01;0.00;59042.03;5019763;28;20505;-56
2022/12/22 08:12:39;;;;;;;48.42;8.85;;;;;;;0.01;0.00;59042.03;5020367;28;20025;-53
2022/12/22 08:15:06;;;;;;;23.20;2.65;;;;;;;0.01;0.00;59042.03;5020038;28;20040;-53
2022/12/22 08:17:32;;;;;;;31.63;3.67;;;;;;;0.01;0.00;59042.03;5020432;28;20108;-55
2022/12/22 08:19:57;;;;;;;43.95;4.55;;;;;;;0.01;0.00;59042.03;5019925;28;20554;-53
2022/12/22 08:22:24;;;;;;;27.90;3.88;;;;;;;0.01;0.00;59042.03;5019666;28;20041;-53
2022/12/22 08:24:53;;;;;;;37.17;3.80;;;;;;;0.01;0.00;59042.03;5020065;28;20029;-53
2022/12/22 08:27:30;;;;;;;23.35;2.60;;;;;;;0.01;0.00;59042.03;5020107;28;20038;-53
2022/12/22 08:30:01;;;;;;;48.17;4.78;;;;;;;0.01;0.00;59042.03;5018624;28;20025;-53
2022/12/22 08:32:26;;;;;;;26.88;3.78;;;;;;;0.01;0.00;59042.03;5019732;28;20033;-54
2022/12/22 08:34:53;;;;;;;29.98;4.70;;;;;;;0.01;0.00;59042.03;5019933;28;20032;-53
2022/12/22 08:37:23;;;;;;;28.63;3.53;;;;;;;0.01;0.00;59042.03;5019506;28;20037;-54
2022/12/22 08:39:52;;;;;;;40.60;5.18;;;;;;;0.01;0.00;59042.03;5019744;28;20790;-53
2022/12/22 08:42:20;;;;;;;32.22;3.97;;;;;;;0.01;0.00;59042.03;5019721;28;20045;-54
2022/12/22 08:44:51;;;;;;;33.88;4.72;;;;;;;0.01;0.00;59042.03;5020171;28;20021;-55
2022/12/22 08:47:17;;;;;;;32.70;3.75;;;;;;;0.01;0.00;59042.03;5019550;28;20038;-56
2022/12/22 08:49:42;;;;;;;30.85;4.18;;;;;;;0.01;0.00;59042.03;5019976;28;20151;-53
2022/12/22 08:52:08;;;;;;;28.73;3.72;;;;;;;0.01;0.00;59042.03;5019336;28;20041;-55
2022/12/22 08:54:33;;;;;;;31.70;4.22;;;;;;;0.01;0.00;59042.03;5019957;28;20780;-54
2022/12/22 08:56:58;;;;;;;26.10;4.22;;;;;;;0.01;0.00;59042.03;5019446;28;20080;-56
2022/12/22 08:59:24;;;;;;;33.83;4.40;;;;;;;0.01;0.00;59042.03;5019461;28;20029;-54
2022/12/22 09:01:49;;;;;;;31.80;4.50;;;;;;;0.01;0.00;59042.03;5018827;28;20053;-54
2022/12/22 09:04:17;;;;;;;30.40;3.90;;;;;;;0.01;0.00;59042.03;5019755;28;20030;-54
2022/12/22 09:06:44;;;;;;;36.60;4.25;;;;;;;0.01;0.00;59042.03;5019433;28;20034;-54
2022/12/22 09:09:11;;;;;;;34.13;4.43;;;;;;;0.01;0.00;59042.03;5019925;28;20047;-54
2022/12/22 09:11:37;;;;;;;28.27;3.72;;;;;;;0.01;0.00;59042.03;5018775;28;20041;-55
2022/12/22 09:14:03;;;;;;;26.02;4.20;;;;;;;0.01;0.00;59042.03;5019610;28;20021;-54
2022/12/22 09:16:30;;;;;;;38.30;5.22;;;;;;;0.01;0.00;59042.03;5018729;28;20412;-53
2022/12/22 09:18:56;;;;;;;28.45;4.13;;;;;;;0.01;0.00;59042.03;5017365;28;20486;-53
2022/12/22 09:21:23;;;;;;;39.10;5.47;;;;;;;0.01;0.00;59042.03;5018315;28;20040;-55
2022/12/22 09:23:49;;;;;;;25.23;4.28;;;;;;;0.01;0.00;59042.03;5019666;28;20044;-54
2022/12/22 09:26:17;;;;;;;30.00;3.75;;;;;;;0.01;0.00;59042.03;5019271;28;20041;-53
2022/12/22 09:28:42;;;;;;;30.48;4.25;;;;;;;0.01;0.00;59042.03;5019902;28;20865;-57
2022/12/22 09:31:09;;;;;;;28.85;4.80;;;;;;;0.01;0.00;59042.03;5018346;28;20037;-55
2022/12/22 09:33:35;;;;;;;32.47;5.00;;;;;;;0.01;0.00;59042.03;5017615;28;20110;-53
2022/12/22 09:36:06;;;;;;;26.38;4.15;;;;;;;0.01;0.00;59042.03;5018782;28;20041;-54
2022/12/22 09:38:31;;;;;;;37.17;5.38;;;;;;;0.01;0.00;59042.03;5019122;28;20036;-54
2022/12/22 09:40:57;;;;;;;36.83;5.43;;;;;;;0.01;0.00;59042.03;5018051;28;20046;-56
2022/12/22 09:43:28;;;;;;;33.72;4.80;;;;;;;0.01;0.00;59042.03;5019133;28;20021;-53
2022/12/22 09:45:56;;;;;;;42.67;5.70;;;;;;;0.01;0.00;59042.03;5018288;28;20124;-53
2022/12/22 09:48:21;;;;;;;34.25;4.75;;;;;;;0.01;0.00;59042.03;5019233;28;20398;-54
2022/12/22 09:50:47;;;;;;;29.75;4.18;;;;;;;0.01;0.00;59042.03;5018041;28;20047;-54
2022/12/22 09:53:19;;;;;;;30.60;4.82;;;;;;;0.01;0.00;59042.03;5019537;28;20041;-53
2022/12/22 09:55:47;;;;;;;33.97;5.00;;;;;;;0.01;0.00;59042.03;5018275;28;20033;-54
2022/12/22 09:58:22;;;;;;;37.80;5.03;;;;;;;0.01;0.00;59042.03;5019109;28;20029;-53
2022/12/22 10:00:53;;;;;;;33.08;4.10;;;;;;;0.01;0.00;59042.03;5017748;28;20041;-54
2022/12/22 10:03:32;;;;;;;27.65;3.95;;;;;;;0.01;0.00;59042.03;5018348;28;20041;-55
2022/12/22 10:06:08;;;;;;;33.13;3.85;;;;;;;0.01;0.00;59042.03;5017612;28;20053;-53
2022/12/22 10:08:36;;;;;;;32.63;4.60;;;;;;;0.01;0.00;59042.03;5018600;28;20033;-56
2022/12/22 10:11:01;;;;;;;33.80;4.97;;;;;;;0.01;0.00;59042.03;5017159;28;20045;-53
2022/12/22 10:13:27;;;;;;;29.13;4.85;;;;;;;0.01;0.00;59042.03;5018567;28;20091;-53
2022/12/22 10:15:53;;;;;;;31.70;4.90;;;;;;;0.01;0.00;59042.03;5017822;28;20052;-54
2022/12/22 10:18:27;;;;;;;41.03;5.68;;;;;;;0.01;0.00;59042.03;5018036;28;20032;-55
2022/12/22 10:21:06;;;;;;;33.33;4.90;;;;;;;0.01;0.00;59042.03;5017143;28;20040;-55
2022/12/22 10:23:34;;;;;;;31.88;4.30;;;;;;;0.01;0.00;59042.03;5018743;28;20021;-57
2022/12/22 10:26:04;;;;;;;34.83;5.15;;;;;;;0.01;0.00;59042.03;5017940;28;20978;-54
2022/12/22 10:28:37;;;;;;;39.88;5.25;;;;;;;0.01;0.00;59042.03;5017968;28;20780;-55
2022/12/22 10:31:22;;;;;;;36.72;4.95;;;;;;;0.01;0.00;59042.03;5017666;28;20049;-54
2022/12/22 10:33:52;;;;;;;29.20;4.07;;;;;;;0.01;0.00;59042.03;5018528;28;20429;-54
2022/12/22 10:36:25;;;;;;;30.08;3.90;;;;;;;0.01;0.00;59042.03;5017488;28;20076;-54
2022/12/22 10:38:55;;;;;;;23.73;3.20;;;;;;;0.01;0.00;59042.03;5018518;28;20037;-54
2022/12/22 10:41:24;;;;;;;34.35;4.38;;;;;;;0.01;0.00;59042.03;5017030;28;20037;-56
2022/12/22 10:43:52;;;;;;;31.30;4.05;;;;;;;0.01;0.00;59042.03;5018148;28;20761;-55
2022/12/22 10:46:32;;;;;;;24.67;3.40;;;;;;;0.01;0.00;59042.03;5017407;28;20038;-55
2022/12/22 10:49:33;;;;;;;34.33;4.38;;;;;;;0.01;0.00;59042.03;5018129;28;20034;-54
2022/12/22 10:52:20;;;;;;;40.67;5.13;;;;;;;0.01;0.00;59042.03;4974979;28;20042;-54
2022/12/22 10:54:46;;;;;;;30.85;3.90;;;;;;;0.01;0.00;59042.03;5015118;28;20065;-55
2022/12/22 10:57:17;;;;;;;29.10;4.05;;;;;;;0.01;0.00;59042.03;5017683;28;20038;-56
2022/12/22 10:59:47;;;;;;;38.30;5.13;;;;;;;0.01;0.00;59042.03;5017513;28;20021;-57
2022/12/22 11:02:25;;;;;;;25.02;3.38;;;;;;;0.01;0.00;59042.03;5017086;28;20770;-54
2022/12/22 11:04:52;;;;;;;39.97;4.80;;;;;;;0.01;0.00;59042.03;5017869;28;20025;-56
2022/12/22 11:07:18;;;;;;;35.50;4.28;;;;;;;0.01;0.00;59042.03;5017380;28;20395;-56
2022/12/22 11:09:44;;;;;;;39.15;4.55;;;;;;;0.01;0.00;59042.03;5017519;28;20029;-54
2022/12/22 11:12:27;;;;;;;27.90;3.60;;;;;;;0.01;0.00;59042.03;5017001;28;20107;-53
2022/12/22 11:15:06;;;;;;;34.75;4.50;;;;;;;0.01;0.00;59042.03;5017390;28;20033;-54
2022/12/22 11:17:35;;;;;;;29.52;3.63;;;;;;;0.01;0.00;59042.03;5015595;28;20111;-54
2022/12/22 11:20:30;;;;;;;38.45;4.72;;;;;;;0.01;0.00;59042.03;5017553;28;20033;-55
2022/12/22 11:23:18;;;;;;;32.42;4.43;;;;;;;0.01;0.00;59042.03;5021301;28;20124;-56
2022/12/22 11:26:02;;;;;;;24.95;3.55;;;;;;;0.01;0.00;59042.03;5012970;28;20034;-53
2022/12/22 11:28:57;;;;;;;24.38;3.75;;;;;;;0.01;0.00;59042.03;5021737;28;20083;-55
2022/12/22 11:31:50;;;;;;;26.05;3.40;;;;;;;0.01;0.00;59042.03;5020608;28;20442;-54
2022/12/22 11:34:54;;;;;;;32.75;4.38;;;;;;;0.01;0.00;59042.03;5020894;28;20034;-54
2022/12/22 11:37:22;;;;;;;43.63;4.93;;;;;;;0.01;0.00;59042.03;4977519;28;20049;-53
2022/12/22 11:39:55;;;;;;;30.33;4.30;;;;;;;0.01;0.00;59042.03;5013023;28;20037;-53
2022/12/22 11:42:29;;;;;;;29.13;3.78;;;;;;;0.01;0.00;59042.03;5020375;28;20033;-54
2022/12/22 11:45:13;;;;;;;32.28;4.05;;;;;;;0.01;0.00;59042.03;5020950;28;20448;-57
2022/12/22 11:48:00;;;;;;;29.25;4.03;;;;;;;0.01;0.00;59042.03;5020418;28;20041;-56
2022/12/22 11:50:41;;;;;;;41.72;4.72;;;;;;;0.01;0.00;59042.03;5018388;28;20022;-54
2022/12/22 11:53:22;;;;;;;29.70;4.20;;;;;;;0.01;0.00;59042.03;5021017;28;20029;-53
2022/12/22 11:56:20;;;;;;;30.10;4.10;;;;;;;0.01;0.00;59042.03;5020231;28;20087;-55
2022/12/22 11:58:57;;;;;;;33.13;4.00;;;;;;;0.01;0.00;59042.03;5020983;28;20021;-53
2022/12/22 12:01:41;;;;;;;37.75;4.53;;;;;;;0.01;0.00;59042.03;5019412;28;20057;-54
2022/12/22 12:04:09;;;;;;;24.48;3.42;;;;;;;0.01;0.00;59042.03;5020298;28;20025;-54
2022/12/22 12:06:43;;;;;;;38.80;5.15;;;;;;;0.01;0.00;59042.03;5019806;28;20041;-53
2022/12/22 12:09:17;;;;;;;29.55;4.20;;;;;;;0.01;0.00;59042.03;5020721;28;20040;-54
2022/12/22 12:12:15;;;;;;;28.90;3.83;;;;;;;0.01;0.00;59042.03;5019770;28;20068;-57
2022/12/22 12:15:23;;;;;;;37.17;4.30;;;;;;;0.01;0.00;59042.03;5019513;28;20412;-55
2022/12/22 12:18:27;;;;;;;27.15;3.80;;;;;;;0.01;0.00;59042.03;5005495;28;20044;-56
2022/12/22 12:21:24;;;;;;;25.48;3.47;;;;;;;0.01;0.00;59042.03;5004851;28;20095;-54
2022/12/22 12:24:26;;;;;;;33.55;4.13;;;;;;;0.01;0.00;59042.03;4983008;28;20041;-55
2022/12/22 12:27:19;;;;;;;33.58;4.05;;;;;;;0.01;0.00;59042.03;5019594;28;20041;-56
2022/12/22 12:30:03;;;;;;;36.20;4.97;;;;;;;0.01;0.00;59042.03;5019653;28;20033;-57
2022/12/22 12:32:47;;;;;;;27.58;3.75;;;;;;;0.01;0.00;59042.03;5018778;28;20069;-54
2022/12/22 12:35:34;;;;;;;27.25;3.72;;;;;;;0.01;0.00;59042.03;5019194;28;20018;-54
2022/12/22 12:38:09;;;;;;;33.60;4.40;;;;;;;0.01;0.00;59042.03;5019955;28;20057;-57
2022/12/22 12:40:51;;;;;;;27.42;3.45;;;;;;;0.01;0.00;59042.03;5017943;28;20033;-55
2022/12/22 12:43:18;;;;;;;22.20;3.20;;;;;;;0.01;0.00;59042.03;5020540;28;20112;-55
2022/12/22 12:45:46;;;;;;;28.33;3.85;;;;;;;0.01;0.00;59042.03;5019377;28;20338;-54
2022/12/22 12:48:20;;;;;;;28.30;3.78;;;;;;;0.01;0.00;59042.03;5019498;28;20036;-57
2022/12/22 12:50:54;;;;;;;24.25;3.42;;;;;;;0.01;0.00;59042.03;5018590;28;20041;-54
2022/12/22 12:53:24;;;;;;;24.05;3.50;;;;;;;0.01;0.00;59042.03;5020162;28;20164;-54
2022/12/22 12:55:54;;;;;;;27.85;3.50;;;;;;;0.01;0.00;59042.03;5019630;28;20044;-57
2022/12/22 12:58:37;;;;;;;29.85;3.97;;;;;;;0.01;0.00;59042.03;5019991;28;20495;-56
2022/12/22 13:01:03;;;;;;;31.20;4.38;;;;;;;0.01;0.00;59042.03;5018393;28;20044;-56
2022/12/22 13:03:29;;;;;;;34.38;4.40;;;;;;;0.01;0.00;59042.03;5019433;28;20033;-56
2022/12/22 13:06:00;;;;;;;28.60;4.18;;;;;;;0.01;0.00;59042.03;5019274;28;20135;-54
2022/12/22 13:08:28;;;;;;;27.83;4.03;;;;;;;0.01;0.00;59042.03;5019177;28;20026;-54
2022/12/22 13:10:53;;;;;;;33.63;4.43;;;;;;;0.01;0.00;59042.03;5018492;28;20037;-55
2022/12/22 13:13:21;;;;;;;32.25;4.22;;;;;;;0.01;0.00;59042.03;5019053;28;20397;-55
2022/12/22 13:15:59;;;;;;;30.08;3.80;;;;;;;0.01;0.00;59042.03;5018589;28;20061;-54
2022/12/22 13:18:24;;;;;;;34.92;4.63;;;;;;;0.01;0.00;59042.03;5018458;28;20033;-56
2022/12/22 13:21:21;;;;;;;29.88;3.97;;;;;;;0.01;0.00;59042.03;5018500;28;20053;-55
2022/12/22 13:24:14;;;;;;;33.17;3.95;;;;;;;0.01;0.00;59042.03;5019393;28;20030;-54
2022/12/22 13:26:42;;;;;;;28.27;3.75;;;;;;;0.01;0.00;59042.03;5018580;28;20045;-56
2022/12/22 13:29:10;;;;;;;25.38;3.88;;;;;;;0.01;0.00;59042.03;5019328;28;20064;-55
2022/12/22 13:31:41;;;;;;;38.45;4.97;;;;;;;0.01;0.00;59042.03;5017881;28;20681;-54
2022/12/22 13:34:25;;;;;;;30.20;4.22;;;;;;;0.01;0.00;59042.03;5019076;28;20025;-55
2022/12/22 13:36:53;;;;;;;27.55;3.88;;;;;;;0.01;0.00;59042.03;5018668;28;20048;-53
2022/12/22 13:39:18;;;;;;;30.05;4.05;;;;;;;0.01;0.00;59042.03;5018698;28;20054;-57
2022/12/22 13:41:47;;;;;;;30.63;4.30;;;;;;;0.01;0.00;59042.03;5018026;28;20033;-56
2022/12/22 13:44:32;;;;;;;32.15;4.68;;;;;;;0.01;0.00;59042.03;5018380;28;20037;-53
2022/12/22 13:47:14;;;;;;;32.13;4.22;;;;;;;0.01;0.00;59042.03;5000214;28;20658;-53
2022/12/22 13:49:41;;;;;;;37.67;4.78;;;;;;;0.01;0.00;59042.03;5018109;28;20039;-53
2022/12/22 13:52:16;;;;;;;31.58;4.63;;;;;;;0.01;0.00;59042.03;5017704;28;20569;-54
2022/12/22 13:54:43;;;;;;;38.78;4.90;;;;;;;0.01;0.00;59042.03;5017979;28;20021;-55
2022/12/22 13:57:19;;;;;;;29.27;4.05;;;;;;;0.01;0.00;59042.03;5018037;28;20079;-53
2022/12/22 13:59:48;;;;;;;38.03;5.35;;;;;;;0.01;0.00;59042.03;5017791;28;20029;-53
2022/12/22 14:02:17;;;;;;;26.80;4.13;;;;;;;0.01;0.00;59042.03;5017864;28;20494;-54
2022/12/22 14:05:01;;;;;;;27.40;4.00;;;;;;;0.01;0.00;59042.03;5018410;28;20446;-53
2022/12/22 14:07:26;;;;;;;25.15;3.95;;;;;;;0.01;0.00;59042.03;5018085;28;20150;-53
2022/12/22 14:09:55;;;;;;;40.28;5.55;;;;;;;0.01;0.00;59042.03;5018221;28;20461;-56
2022/12/22 14:12:26;;;;;;;30.73;4.20;;;;;;;0.01;0.00;59042.03;5018098;28;20725;-55
2022/12/22 14:14:53;;;;;;;34.53;4.38;;;;;;;0.01;0.00;59042.03;5018085;28;20029;-53
2022/12/22 14:17:36;;;;;;;27.35;4.25;;;;;;;0.01;0.00;59042.03;5017412;28;20991;-56
2022/12/22 14:20:42;;;;;;;38.38;5.05;;;;;;;0.01;0.00;59042.03;5016853;28;20025;-57
2022/12/22 14:23:12;;;;;;;32.33;4.20;;;;;;;0.01;0.00;59042.03;5015795;28;20077;-55
2022/12/22 14:25:41;;;;;;;26.30;3.65;;;;;;;0.01;0.00;59042.03;5017403;28;20039;-53
2022/12/22 14:28:26;;;;;;;25.35;4.13;;;;;;;0.01;0.00;59042.03;5018009;28;20047;-53
2022/12/22 14:30:56;;;;;;;26.48;3.70;;;;;;;0.01;0.00;59042.03;5017247;28;20044;-53
2022/12/22 14:33:27;;;;;;;32.78;4.65;;;;;;;0.01;0.00;59042.03;5018118;28;20677;-54
2022/12/22 14:36:17;;;;;;;34.50;4.78;;;;;;;0.01;0.00;59042.03;5017610;28;20236;-53
2022/12/22 14:38:57;;;;;;;20.70;3.38;;;;;;;0.01;0.00;59042.03;5018027;28;20118;-53
2022/12/22 14:41:45;;;;;;;33.53;4.43;;;;;;;0.01;0.00;59042.03;5016867;28;20069;-56
2022/12/22 14:44:24;;;;;;;27.45;4.13;;;;;;;0.01;0.00;59042.03;5017777;28;20021;-54
2022/12/22 14:47:05;;;;;;;26.48;4.10;;;;;;;0.01;0.00;59042.03;5017282;28;20052;-53
2022/12/22 14:49:32;;;;;;;31.90;4.30;;;;;;;0.01;0.00;59042.03;5016149;28;20037;-55
2022/12/22 14:52:18;;;;;;;27.90;4.22;;;;;;;0.01;0.00;59042.03;5016880;28;20395;-54
2022/12/22 14:54:50;;;;;;;24.95;3.83;;;;;;;0.01;0.00;59042.03;5017670;28;20037;-57
2022/12/22 14:57:22;;;;;;;27.75;3.72;;;;;;;0.01;0.00;59042.03;5020218;28;20124;-53
2022/12/22 14:59:57;;;;;;;;;;;;;;;0.01;0.00;59042.03;5022061;28;20063;-53
2022/12/22 15:02:29;;;;;;;28.35;3.95;;;;;;;0.01;0.00;59042.03;5021066;28;19976;-57
2022/12/22 15:05:23;;;;;;;31.88;4.18;;;;;;;0.01;0.00;59042.03;5021997;28;20475;-53
2022/12/22 15:07:51;;;;;;;26.75;3.83;;;;;;;0.01;0.00;59042.03;5021124;28;20052;-55
2022/12/22 15:10:17;;;;;;;22.25;3.65;;;;;;;0.01;0.00;59042.03;5020478;28;20037;-54
2022/12/22 15:12:44;;;;;;;35.28;5.05;;;;;;;0.01;0.00;59042.03;5020804;28;20684;-55
2022/12/22 15:15:18;;;;;;;25.58;4.15;;;;;;;0.01;0.00;59042.03;5021053;28;20376;-53
2022/12/22 15:17:49;;;;;;;38.70;5.22;;;;;;;0.01;0.00;59042.03;5020155;28;20032;-53
2022/12/22 15:20:18;;;;;;;25.45;4.45;;;;;;;0.01;0.00;59042.03;5019879;28;20026;-55
2022/12/22 15:22:44;;;;;;;40.05;5.45;;;;;;;0.01;0.00;59042.03;5017475;28;20085;-53
2022/12/22 15:25:14;;;;;;;24.30;3.83;;;;;;;0.01;0.00;59042.03;5019742;28;20485;-55
2022/12/22 15:27:40;;;;;;;25.73;3.88;;;;;;;0.01;0.00;59042.03;5020878;28;20044;-56
2022/12/22 15:30:06;;;;;;;33.47;4.75;;;;;;;0.01;0.00;59042.03;5020097;28;20664;-53
2022/12/22 15:32:31;;;;;;;28.02;4.10;;;;;;;0.01;0.00;59042.03;5020643;28;20052;-54